sensor_id;sensor_type;location;lat;lon;timestamp;temperature;humidity
13433;DHT22;6789;47.678;9.158;2022-10-14T00:00:52;14.20;99.90
13433;DHT22;6789;47.678;9.158;2022-10-14T00:05:58;14.30;99.90
13433;DHT22;6789;47.678;9.158;2022-10-14T00:10:50;14.20;99.90
13433;DHT22;6789;47.678;9.158;2022-10-14T00:16:24;14.20;99.90
13433;DHT22;6789;47.678;9.158;2022-10-14T00:21:18;14.20;99.90
13433;DHT22;6789;47.678;9.158;2022-10-14T00:26:45;14.20;99.90
13433;DHT22;6789;47.678;9.158;2022-10-14T00:31:59;14.10;99.90
13433;DHT22;6789;47.678;9.158;2022-10-14T00:36:50;14.10;99.90
13433;DHT22;6789;47.678;9.158;2022-10-14T00:41:42;14.10;99.90
13433;DHT22;6789;47.678;9.158;2022-10-14T00:46:46;14.00;99.90
13433;DHT22;6789;47.678;9.158;2022-10-14T00:51:40;14.00;99.90
13433;DHT22;6789;47.678;9.158;2022-10-14T00:56:35;14.00;99.90
13433;DHT22;6789;47.678;9.158;2022-10-14T01:01:27;13.90;99.90
13433;DHT22;6789;47.678;9.158;2022-10-14T01:23:30;13.80;99.90
13433;DHT22;6789;47.678;9.158;2022-10-14T01:28:43;13.70;99.90
13433;DHT22;6789;47.678;9.158;2022-10-14T01:33:48;13.70;99.90
13433;DHT22;6789;47.678;9.158;2022-10-14T01:39:00;13.70;99.90
13433;DHT22;6789;47.678;9.158;2022-10-14T01:44:06;13.70;99.90
13433;DHT22;6789;47.678;9.158;2022-10-14T01:54:31;13.80;99.90
13433;DHT22;6789;47.678;9.158;2022-10-14T01:59:45;13.80;99.90
13433;DHT22;6789;47.678;9.158;2022-10-14T02:04:37;13.70;99.90
13433;DHT22;6789;47.678;9.158;2022-10-14T02:15:36;13.60;99.90
13433;DHT22;6789;47.678;9.158;2022-10-14T02:20:59;13.60;99.90
13433;DHT22;6789;47.678;9.158;2022-10-14T02:26:00;13.70;99.90
13433;DHT22;6789;47.678;9.158;2022-10-14T02:31:00;13.70;99.90
13433;DHT22;6789;47.678;9.158;2022-10-14T02:35:57;13.60;99.90
13433;DHT22;6789;47.678;9.158;2022-10-14T02:40:51;13.60;99.90
13433;DHT22;6789;47.678;9.158;2022-10-14T02:45:44;13.50;99.90
13433;DHT22;6789;47.678;9.158;2022-10-14T02:50:49;13.40;99.90
13433;DHT22;6789;47.678;9.158;2022-10-14T02:55:41;13.40;99.90
13433;DHT22;6789;47.678;9.158;2022-10-14T03:00:33;13.30;99.90
13433;DHT22;6789;47.678;9.158;2022-10-14T03:05:25;13.30;99.90
13433;DHT22;6789;47.678;9.158;2022-10-14T03:10:17;13.20;99.90
13433;DHT22;6789;47.678;9.158;2022-10-14T03:15:09;13.20;99.90
13433;DHT22;6789;47.678;9.158;2022-10-14T03:20:02;13.20;99.90
13433;DHT22;6789;47.678;9.158;2022-10-14T03:24:55;13.20;99.90
13433;DHT22;6789;47.678;9.158;2022-10-14T03:29:47;13.30;99.90
13433;DHT22;6789;47.678;9.158;2022-10-14T03:34:38;13.30;99.90
13433;DHT22;6789;47.678;9.158;2022-10-14T03:39:32;13.30;99.90
13433;DHT22;6789;47.678;9.158;2022-10-14T03:44:24;13.30;99.90
13433;DHT22;6789;47.678;9.158;2022-10-14T03:49:16;13.30;99.90
13433;DHT22;6789;47.678;9.158;2022-10-14T03:54:33;13.30;99.90
13433;DHT22;6789;47.678;9.158;2022-10-14T03:59:25;13.30;99.90
13433;DHT22;6789;47.678;9.158;2022-10-14T04:04:17;13.30;99.90
13433;DHT22;6789;47.678;9.158;2022-10-14T04:09:23;13.30;99.90
13433;DHT22;6789;47.678;9.158;2022-10-14T04:14:43;13.40;99.90
13433;DHT22;6789;47.678;9.158;2022-10-14T04:19:59;13.40;99.90
13433;DHT22;6789;47.678;9.158;2022-10-14T04:25:25;13.30;99.90
13433;DHT22;6789;47.678;9.158;2022-10-14T04:30:32;13.30;99.90
13433;DHT22;6789;47.678;9.158;2022-10-14T04:35:42;13.30;99.90
13433;DHT22;6789;47.678;9.158;2022-10-14T04:40:58;13.30;99.90
13433;DHT22;6789;47.678;9.158;2022-10-14T04:46:05;13.20;99.90
13433;DHT22;6789;47.678;9.158;2022-10-14T04:51:15;13.30;99.90
13433;DHT22;6789;47.678;9.158;2022-10-14T04:56:23;13.20;99.90
13433;DHT22;6789;47.678;9.158;2022-10-14T05:01:37;13.20;99.90
13433;DHT22;6789;47.678;9.158;2022-10-14T05:07:36;13.20;99.90
13433;DHT22;6789;47.678;9.158;2022-10-14T05:13:05;13.20;99.90
13433;DHT22;6789;47.678;9.158;2022-10-14T05:18:15;13.20;99.90
13433;DHT22;6789;47.678;9.158;2022-10-14T05:23:32;13.20;99.90
13433;DHT22;6789;47.678;9.158;2022-10-14T05:28:39;13.20;99.90
13433;DHT22;6789;47.678;9.158;2022-10-14T05:33:51;13.20;99.90
13433;DHT22;6789;47.678;9.158;2022-10-14T05:51:46;13.20;99.90
13433;DHT22;6789;47.678;9.158;2022-10-14T05:57:00;13.30;99.90
13433;DHT22;6789;47.678;9.158;2022-10-14T06:02:36;13.20;99.90
13433;DHT22;6789;47.678;9.158;2022-10-14T06:08:22;13.20;99.90
13433;DHT22;6789;47.678;9.158;2022-10-14T06:13:40;13.40;99.90
13433;DHT22;6789;47.678;9.158;2022-10-14T06:18:50;13.50;99.90
13433;DHT22;6789;47.678;9.158;2022-10-14T06:24:47;13.60;99.90
13433;DHT22;6789;47.678;9.158;2022-10-14T06:30:51;13.70;99.90
13433;DHT22;6789;47.678;9.158;2022-10-14T06:36:22;13.70;99.90
13433;DHT22;6789;47.678;9.158;2022-10-14T06:42:08;13.90;99.90
13433;DHT22;6789;47.678;9.158;2022-10-14T06:48:12;14.00;99.90
13433;DHT22;6789;47.678;9.158;2022-10-14T06:53:57;14.00;99.90
13433;DHT22;6789;47.678;9.158;2022-10-14T06:59:15;14.00;99.90
13433;DHT22;6789;47.678;9.158;2022-10-14T07:04:32;13.90;99.90
13433;DHT22;6789;47.678;9.158;2022-10-14T07:17:02;13.90;99.90
13433;DHT22;6789;47.678;9.158;2022-10-14T07:22:19;14.10;99.90
13433;DHT22;6789;47.678;9.158;2022-10-14T07:27:35;14.10;99.90
13433;DHT22;6789;47.678;9.158;2022-10-14T07:40:31;14.10;99.90
13433;DHT22;6789;47.678;9.158;2022-10-14T07:46:22;14.20;99.90
13433;DHT22;6789;47.678;9.158;2022-10-14T07:58:51;14.60;99.90
13433;DHT22;6789;47.678;9.158;2022-10-14T08:05:00;14.80;99.90
13433;DHT22;6789;47.678;9.158;2022-10-14T08:28:41;15.20;99.90
13433;DHT22;6789;47.678;9.158;2022-10-14T08:34:02;15.20;99.90
13433;DHT22;6789;47.678;9.158;2022-10-14T08:39:22;15.20;99.90
13433;DHT22;6789;47.678;9.158;2022-10-14T08:56:11;15.40;99.90
13433;DHT22;6789;47.678;9.158;2022-10-14T09:08:34;15.80;99.90
13433;DHT22;6789;47.678;9.158;2022-10-14T09:56:29;15.60;99.90
13433;DHT22;6789;47.678;9.158;2022-10-14T10:02:48;15.60;99.90
13433;DHT22;6789;47.678;9.158;2022-10-14T10:09:30;15.50;99.90
13433;DHT22;6789;47.678;9.158;2022-10-14T10:15:59;15.50;99.90
13433;DHT22;6789;47.678;9.158;2022-10-14T10:21:38;15.50;99.90
13433;DHT22;6789;47.678;9.158;2022-10-14T10:27:30;15.40;99.90
13433;DHT22;6789;47.678;9.158;2022-10-14T10:33:23;15.50;99.90
13433;DHT22;6789;47.678;9.158;2022-10-14T10:51:25;16.40;99.90
13433;DHT22;6789;47.678;9.158;2022-10-14T12:14:50;18.10;99.90
13433;DHT22;6789;47.678;9.158;2022-10-14T12:31:46;16.60;99.90
13433;DHT22;6789;47.678;9.158;2022-10-14T12:37:40;16.60;99.90
13433;DHT22;6789;47.678;9.158;2022-10-14T12:43:00;16.30;99.90
13433;DHT22;6789;47.678;9.158;2022-10-14T12:48:42;16.30;99.90
13433;DHT22;6789;47.678;9.158;2022-10-14T12:54:44;16.30;99.90
13433;DHT22;6789;47.678;9.158;2022-10-14T13:01:00;16.40;99.90
13433;DHT22;6789;47.678;9.158;2022-10-14T13:06:39;16.50;99.90
13433;DHT22;6789;47.678;9.158;2022-10-14T13:12:46;16.50;99.90
13433;DHT22;6789;47.678;9.158;2022-10-14T13:38:33;16.50;99.90
13433;DHT22;6789;47.678;9.158;2022-10-14T13:44:09;16.30;99.90
13433;DHT22;6789;47.678;9.158;2022-10-14T13:55:24;16.10;99.90
13433;DHT22;6789;47.678;9.158;2022-10-14T14:01:03;16.10;99.90
13433;DHT22;6789;47.678;9.158;2022-10-14T14:06:46;16.00;99.90
13433;DHT22;6789;47.678;9.158;2022-10-14T14:12:49;15.80;99.90
13433;DHT22;6789;47.678;9.158;2022-10-14T14:18:36;15.90;99.90
13433;DHT22;6789;47.678;9.158;2022-10-14T14:24:21;15.80;99.90
13433;DHT22;6789;47.678;9.158;2022-10-14T14:30:58;15.80;99.90
13433;DHT22;6789;47.678;9.158;2022-10-14T14:42:12;15.90;99.90
13433;DHT22;6789;47.678;9.158;2022-10-14T14:47:42;16.10;99.90
13433;DHT22;6789;47.678;9.158;2022-10-14T14:53:02;16.00;99.90
13433;DHT22;6789;47.678;9.158;2022-10-14T14:58:52;16.00;99.90
13433;DHT22;6789;47.678;9.158;2022-10-14T15:04:25;16.20;99.90
13433;DHT22;6789;47.678;9.158;2022-10-14T15:09:59;16.20;99.90
13433;DHT22;6789;47.678;9.158;2022-10-14T15:15:51;16.30;99.90
13433;DHT22;6789;47.678;9.158;2022-10-14T15:21:32;16.40;99.90
13433;DHT22;6789;47.678;9.158;2022-10-14T15:28:26;16.40;99.90
13433;DHT22;6789;47.678;9.158;2022-10-14T15:33:38;16.40;99.90
13433;DHT22;6789;47.678;9.158;2022-10-14T15:39:41;16.40;99.90
13433;DHT22;6789;47.678;9.158;2022-10-14T15:44:58;16.50;99.90
13433;DHT22;6789;47.678;9.158;2022-10-14T15:55:43;16.30;99.90
13433;DHT22;6789;47.678;9.158;2022-10-14T16:01:57;16.30;99.90
13433;DHT22;6789;47.678;9.158;2022-10-14T16:07:26;16.10;99.90
13433;DHT22;6789;47.678;9.158;2022-10-14T16:13:21;16.00;99.90
13433;DHT22;6789;47.678;9.158;2022-10-14T16:18:59;16.00;99.90
13433;DHT22;6789;47.678;9.158;2022-10-14T16:29:26;15.80;99.90
13433;DHT22;6789;47.678;9.158;2022-10-14T16:34:44;15.70;99.90
13433;DHT22;6789;47.678;9.158;2022-10-14T16:40:22;15.70;99.90
13433;DHT22;6789;47.678;9.158;2022-10-14T16:52:05;15.60;99.90
13433;DHT22;6789;47.678;9.158;2022-10-14T16:57:48;15.50;99.90
13433;DHT22;6789;47.678;9.158;2022-10-14T17:03:23;15.50;99.90
13433;DHT22;6789;47.678;9.158;2022-10-14T17:09:20;15.50;99.90
13433;DHT22;6789;47.678;9.158;2022-10-14T17:15:37;15.50;99.90
13433;DHT22;6789;47.678;9.158;2022-10-14T17:21:20;15.50;99.90
13433;DHT22;6789;47.678;9.158;2022-10-14T17:45:27;15.40;99.90
13433;DHT22;6789;47.678;9.158;2022-10-14T17:51:21;15.30;99.90
13433;DHT22;6789;47.678;9.158;2022-10-14T17:56:40;15.30;99.90
13433;DHT22;6789;47.678;9.158;2022-10-14T18:02:16;15.30;99.90
13433;DHT22;6789;47.678;9.158;2022-10-14T18:07:45;15.20;99.90
13433;DHT22;6789;47.678;9.158;2022-10-14T18:13:15;15.20;99.90
13433;DHT22;6789;47.678;9.158;2022-10-14T18:18:54;15.10;99.90
13433;DHT22;6789;47.678;9.158;2022-10-14T18:24:47;15.10;99.90
13433;DHT22;6789;47.678;9.158;2022-10-14T18:37:36;15.10;99.90
13433;DHT22;6789;47.678;9.158;2022-10-14T18:43:25;15.10;99.90
13433;DHT22;6789;47.678;9.158;2022-10-14T18:49:04;15.10;99.90
13433;DHT22;6789;47.678;9.158;2022-10-14T18:54:59;15.00;99.90
13433;DHT22;6789;47.678;9.158;2022-10-14T19:01:36;14.90;99.90
13433;DHT22;6789;47.678;9.158;2022-10-14T19:07:05;14.90;99.90
13433;DHT22;6789;47.678;9.158;2022-10-14T19:19:13;14.80;99.90
13433;DHT22;6789;47.678;9.158;2022-10-14T19:24:41;14.80;99.90
13433;DHT22;6789;47.678;9.158;2022-10-14T19:30:08;14.70;99.90
13433;DHT22;6789;47.678;9.158;2022-10-14T19:35:37;14.60;99.90
13433;DHT22;6789;47.678;9.158;2022-10-14T19:41:04;14.60;99.90
13433;DHT22;6789;47.678;9.158;2022-10-14T19:46:54;14.50;99.90
13433;DHT22;6789;47.678;9.158;2022-10-14T19:52:14;14.50;99.90
13433;DHT22;6789;47.678;9.158;2022-10-14T19:58:28;14.50;99.90
13433;DHT22;6789;47.678;9.158;2022-10-14T20:03:45;14.50;99.90
13433;DHT22;6789;47.678;9.158;2022-10-14T20:09:48;14.40;99.90
13433;DHT22;6789;47.678;9.158;2022-10-14T20:15:05;14.50;99.90
13433;DHT22;6789;47.678;9.158;2022-10-14T20:20:38;14.50;99.90
13433;DHT22;6789;47.678;9.158;2022-10-14T20:26:25;14.40;99.90
13433;DHT22;6789;47.678;9.158;2022-10-14T20:32:27;14.40;99.90
13433;DHT22;6789;47.678;9.158;2022-10-14T20:38:10;14.40;99.90
13433;DHT22;6789;47.678;9.158;2022-10-14T20:43:18;14.30;99.90
13433;DHT22;6789;47.678;9.158;2022-10-14T20:48:37;14.30;99.90
13433;DHT22;6789;47.678;9.158;2022-10-14T20:53:46;14.30;99.90
13433;DHT22;6789;47.678;9.158;2022-10-14T20:59:04;14.30;99.90
13433;DHT22;6789;47.678;9.158;2022-10-14T21:04:31;14.30;99.90
13433;DHT22;6789;47.678;9.158;2022-10-14T21:09:40;14.40;99.90
13433;DHT22;6789;47.678;9.158;2022-10-14T21:14:48;14.40;99.90
13433;DHT22;6789;47.678;9.158;2022-10-14T21:20:41;14.30;99.90
13433;DHT22;6789;47.678;9.158;2022-10-14T21:26:10;14.30;99.90
13433;DHT22;6789;47.678;9.158;2022-10-14T21:32:13;14.30;99.90
13433;DHT22;6789;47.678;9.158;2022-10-14T21:37:54;14.20;99.90
13433;DHT22;6789;47.678;9.158;2022-10-14T21:43:55;14.30;99.90
13433;DHT22;6789;47.678;9.158;2022-10-14T21:49:53;14.20;99.90
13433;DHT22;6789;47.678;9.158;2022-10-14T21:55:54;14.20;99.90
13433;DHT22;6789;47.678;9.158;2022-10-14T22:11:57;14.10;99.90
13433;DHT22;6789;47.678;9.158;2022-10-14T22:17:03;14.10;99.90
13433;DHT22;6789;47.678;9.158;2022-10-14T22:28:01;14.00;99.90
13433;DHT22;6789;47.678;9.158;2022-10-14T22:33:55;14.10;99.90
13433;DHT22;6789;47.678;9.158;2022-10-14T22:39:22;14.10;99.90
13433;DHT22;6789;47.678;9.158;2022-10-14T22:44:59;14.10;99.90
13433;DHT22;6789;47.678;9.158;2022-10-14T22:50:20;14.10;99.90
13433;DHT22;6789;47.678;9.158;2022-10-14T22:56:05;14.00;99.90
13433;DHT22;6789;47.678;9.158;2022-10-14T23:02:14;14.10;99.90
13433;DHT22;6789;47.678;9.158;2022-10-14T23:15:10;14.00;99.90
13433;DHT22;6789;47.678;9.158;2022-10-14T23:20:19;14.00;99.90
13433;DHT22;6789;47.678;9.158;2022-10-14T23:25:56;14.10;99.90
13433;DHT22;6789;47.678;9.158;2022-10-14T23:32:14;14.00;99.90
13433;DHT22;6789;47.678;9.158;2022-10-14T23:37:52;13.90;99.90
13433;DHT22;6789;47.678;9.158;2022-10-14T23:50:06;14.00;99.90
13433;DHT22;6789;47.678;9.158;2022-10-14T23:55:36;14.00;99.90
